Fertile, Iowa
Current Conditions -  °F | °C
As of 4:53 AM on Friday 31 Oct 2014 (Local Time) from KMCW Reporting Station
Clear Clear  
Wind Chill: 14°   Ceiling: Unl
Heat Index: 26°   Visibility: 10mi
Dew Point: 16°   Wind: 15mph
Humidity: 66%   Direction: 340°NNW
Pressure: 30.42"   Gusts: NA
Location:  43.26°N, 93.42°W
Report Text: KMCW 310953Z AUTO 34013KT 10SM CLR M03/M09 A3042 RMK AO2 SLP306 T10331089 $
Loading
Personal Weather Stations






























Interactive Weather Map
Tropical Storm Tracking
New forecast layout! Learn more

10-Day Weather Forecast

Advertisements
Track Severe Weather on mobile